sensor_id;sensor_type;location;lat;lon;timestamp;pressure;altitude;pressure_sealevel;temperature;humidity
4449;BME280;2237;51.870;6.160;2022-07-25T00:00:23;100952.56;;;26.57;49.11
4449;BME280;2237;51.870;6.160;2022-07-25T00:02:49;100952.44;;;26.58;49.30
4449;BME280;2237;51.870;6.160;2022-07-25T00:05:16;100947.94;;;26.59;49.02
4449;BME280;2237;51.870;6.160;2022-07-25T00:07:42;100942.84;;;26.56;49.05
4449;BME280;2237;51.870;6.160;2022-07-25T00:10:09;100947.50;;;26.54;49.40
4449;BME280;2237;51.870;6.160;2022-07-25T00:12:36;100945.22;;;26.49;49.49
4449;BME280;2237;51.870;6.160;2022-07-25T00:15:03;100941.53;;;26.41;49.51
4449;BME280;2237;51.870;6.160;2022-07-25T00:17:30;100935.03;;;26.33;49.41
4449;BME280;2237;51.870;6.160;2022-07-25T00:19:56;100931.50;;;26.33;49.73
4449;BME280;2237;51.870;6.160;2022-07-25T00:22:23;100924.47;;;26.32;49.55
4449;BME280;2237;51.870;6.160;2022-07-25T00:24:49;100913.91;;;26.30;49.78
4449;BME280;2237;51.870;6.160;2022-07-25T00:27:16;100914.00;;;26.19;49.93
4449;BME280;2237;51.870;6.160;2022-07-25T00:29:42;100914.84;;;26.20;49.90
4449;BME280;2237;51.870;6.160;2022-07-25T00:32:09;100910.63;;;26.17;49.75
4449;BME280;2237;51.870;6.160;2022-07-25T00:34:35;100916.31;;;26.13;50.37
4449;BME280;2237;51.870;6.160;2022-07-25T00:37:02;100917.84;;;26.06;50.12
4449;BME280;2237;51.870;6.160;2022-07-25T00:39:28;100910.34;;;26.00;50.45
4449;BME280;2237;51.870;6.160;2022-07-25T00:41:54;100909.50;;;25.99;50.30
4449;BME280;2237;51.870;6.160;2022-07-25T00:44:29;100902.59;;;25.97;49.84
4449;BME280;2237;51.870;6.160;2022-07-25T00:46:56;100902.72;;;25.95;50.10
4449;BME280;2237;51.870;6.160;2022-07-25T00:49:24;100896.94;;;25.90;50.73
4449;BME280;2237;51.870;6.160;2022-07-25T00:51:51;100896.47;;;25.85;50.50
4449;BME280;2237;51.870;6.160;2022-07-25T00:54:18;100891.00;;;25.87;50.34
4449;BME280;2237;51.870;6.160;2022-07-25T00:56:45;100896.47;;;25.85;49.97
4449;BME280;2237;51.870;6.160;2022-07-25T00:59:12;100890.28;;;25.84;49.83
4449;BME280;2237;51.870;6.160;2022-07-25T01:01:38;100892.09;;;25.84;49.78
4449;BME280;2237;51.870;6.160;2022-07-25T01:04:05;100878.44;;;25.77;49.94
4449;BME280;2237;51.870;6.160;2022-07-25T01:06:33;100885.63;;;25.77;50.26
4449;BME280;2237;51.870;6.160;2022-07-25T01:09:00;100882.22;;;25.75;49.68
4449;BME280;2237;51.870;6.160;2022-07-25T01:11:26;100867.56;;;25.69;49.50
4449;BME280;2237;51.870;6.160;2022-07-25T01:13:53;100865.31;;;25.65;49.78
4449;BME280;2237;51.870;6.160;2022-07-25T01:16:19;100863.00;;;25.60;49.59
4449;BME280;2237;51.870;6.160;2022-07-25T01:18:46;100865.81;;;25.59;49.30
4449;BME280;2237;51.870;6.160;2022-07-25T01:21:13;100864.13;;;25.58;49.27
4449;BME280;2237;51.870;6.160;2022-07-25T01:23:40;100852.84;;;25.54;49.33
4449;BME280;2237;51.870;6.160;2022-07-25T01:26:07;100854.56;;;25.55;49.28
4449;BME280;2237;51.870;6.160;2022-07-25T01:28:33;100852.28;;;25.51;49.22
4449;BME280;2237;51.870;6.160;2022-07-25T01:31:00;100842.59;;;25.50;49.10
4449;BME280;2237;51.870;6.160;2022-07-25T01:33:26;100846.22;;;25.49;49.01
4449;BME280;2237;51.870;6.160;2022-07-25T01:35:53;100849.72;;;25.49;48.53
4449;BME280;2237;51.870;6.160;2022-07-25T01:38:19;100855.06;;;25.49;48.67
4449;BME280;2237;51.870;6.160;2022-07-25T01:40:46;100840.78;;;25.50;48.50
4449;BME280;2237;51.870;6.160;2022-07-25T01:43:12;100838.22;;;25.49;48.68
4449;BME280;2237;51.870;6.160;2022-07-25T01:45:48;100833.00;;;25.47;48.39
4449;BME280;2237;51.870;6.160;2022-07-25T01:48:15;100827.78;;;25.46;48.68
4449;BME280;2237;51.870;6.160;2022-07-25T01:50:42;100826.09;;;25.45;48.64
4449;BME280;2237;51.870;6.160;2022-07-25T01:53:09;100832.41;;;25.44;49.06
4449;BME280;2237;51.870;6.160;2022-07-25T01:55:35;100820.53;;;25.37;49.17
4449;BME280;2237;51.870;6.160;2022-07-25T01:58:02;100830.38;;;25.36;49.30
4449;BME280;2237;51.870;6.160;2022-07-25T02:00:31;100823.00;;;25.28;49.40
4449;BME280;2237;51.870;6.160;2022-07-25T02:02:58;100820.22;;;25.30;49.73
4449;BME280;2237;51.870;6.160;2022-07-25T02:05:43;100816.00;;;25.27;49.29
4449;BME280;2237;51.870;6.160;2022-07-25T02:08:09;100822.16;;;25.28;49.79
4449;BME280;2237;51.870;6.160;2022-07-25T02:10:36;100820.84;;;25.22;50.32
4449;BME280;2237;51.870;6.160;2022-07-25T02:13:03;100815.31;;;25.14;50.75
4449;BME280;2237;51.870;6.160;2022-07-25T02:15:29;100811.94;;;25.12;50.87
4449;BME280;2237;51.870;6.160;2022-07-25T02:17:56;100816.28;;;25.13;50.57
4449;BME280;2237;51.870;6.160;2022-07-25T02:20:22;100820.91;;;25.11;50.74
4449;BME280;2237;51.870;6.160;2022-07-25T02:22:48;100806.88;;;25.09;51.25
4449;BME280;2237;51.870;6.160;2022-07-25T02:25:15;100805.41;;;25.05;51.51
4449;BME280;2237;51.870;6.160;2022-07-25T02:27:42;100798.91;;;24.98;51.52
4449;BME280;2237;51.870;6.160;2022-07-25T02:30:08;100787.53;;;24.96;51.81
4449;BME280;2237;51.870;6.160;2022-07-25T02:32:35;100783.69;;;24.89;52.03
4449;BME280;2237;51.870;6.160;2022-07-25T02:35:02;100774.50;;;24.82;51.88
4449;BME280;2237;51.870;6.160;2022-07-25T02:37:37;100777.31;;;24.81;52.26
4449;BME280;2237;51.870;6.160;2022-07-25T02:40:05;100768.81;;;24.76;52.26
4449;BME280;2237;51.870;6.160;2022-07-25T02:42:31;100775.22;;;24.73;52.44
4449;BME280;2237;51.870;6.160;2022-07-25T02:44:58;100764.56;;;24.73;52.21
4449;BME280;2237;51.870;6.160;2022-07-25T02:47:24;100763.84;;;24.71;52.17
4449;BME280;2237;51.870;6.160;2022-07-25T02:49:51;100761.78;;;24.74;52.05
4449;BME280;2237;51.870;6.160;2022-07-25T02:52:17;100762.16;;;24.70;52.14
4449;BME280;2237;51.870;6.160;2022-07-25T02:54:44;100755.84;;;24.71;52.44
4449;BME280;2237;51.870;6.160;2022-07-25T02:57:10;100759.72;;;24.67;52.56
4449;BME280;2237;51.870;6.160;2022-07-25T02:59:37;100752.38;;;24.59;52.73
4449;BME280;2237;51.870;6.160;2022-07-25T03:02:03;100757.84;;;24.58;52.80
4449;BME280;2237;51.870;6.160;2022-07-25T03:04:29;100752.03;;;24.53;53.30
4449;BME280;2237;51.870;6.160;2022-07-25T03:06:56;100750.13;;;24.44;53.53
4449;BME280;2237;51.870;6.160;2022-07-25T03:09:23;100755.44;;;24.44;53.35
4449;BME280;2237;51.870;6.160;2022-07-25T03:11:49;100747.59;;;24.42;53.32
4449;BME280;2237;51.870;6.160;2022-07-25T03:14:17;100753.63;;;24.44;53.28
4449;BME280;2237;51.870;6.160;2022-07-25T03:16:43;100741.88;;;24.47;53.46
4449;BME280;2237;51.870;6.160;2022-07-25T03:19:10;100730.75;;;24.42;53.43
4449;BME280;2237;51.870;6.160;2022-07-25T03:21:38;100742.00;;;24.45;53.59
4449;BME280;2237;51.870;6.160;2022-07-25T03:24:05;100733.88;;;24.47;53.39
4449;BME280;2237;51.870;6.160;2022-07-25T03:26:32;100741.56;;;24.40;53.70
4449;BME280;2237;51.870;6.160;2022-07-25T03:28:58;100743.38;;;24.40;53.80
4449;BME280;2237;51.870;6.160;2022-07-25T03:31:24;100742.03;;;24.34;53.71
4449;BME280;2237;51.870;6.160;2022-07-25T03:33:51;100735.50;;;24.27;54.34
4449;BME280;2237;51.870;6.160;2022-07-25T03:36:17;100741.69;;;24.28;53.87
4449;BME280;2237;51.870;6.160;2022-07-25T03:38:44;100730.56;;;24.23;54.03
4449;BME280;2237;51.870;6.160;2022-07-25T03:41:11;100730.81;;;24.20;54.53
4449;BME280;2237;51.870;6.160;2022-07-25T03:43:38;100731.78;;;24.18;54.15
4449;BME280;2237;51.870;6.160;2022-07-25T03:46:04;100726.09;;;24.12;54.22
4449;BME280;2237;51.870;6.160;2022-07-25T03:48:31;100726.69;;;24.15;54.47
4449;BME280;2237;51.870;6.160;2022-07-25T03:50:57;100712.69;;;24.13;54.40
4449;BME280;2237;51.870;6.160;2022-07-25T03:53:31;100716.31;;;24.12;54.31
4449;BME280;2237;51.870;6.160;2022-07-25T03:55:58;100711.13;;;24.11;54.71
4449;BME280;2237;51.870;6.160;2022-07-25T03:58:24;100711.44;;;24.06;54.41
4449;BME280;2237;51.870;6.160;2022-07-25T04:03:17;100707.81;;;24.07;54.39
4449;BME280;2237;51.870;6.160;2022-07-25T04:05:43;100707.47;;;24.12;54.16
4449;BME280;2237;51.870;6.160;2022-07-25T04:08:13;100709.63;;;24.18;54.00
4449;BME280;2237;51.870;6.160;2022-07-25T04:10:39;100703.22;;;24.21;53.73
4449;BME280;2237;51.870;6.160;2022-07-25T04:13:06;100706.88;;;24.20;54.00
4449;BME280;2237;51.870;6.160;2022-07-25T04:15:33;100707.81;;;24.18;53.63
4449;BME280;2237;51.870;6.160;2022-07-25T04:18:00;100710.13;;;24.23;53.86
4449;BME280;2237;51.870;6.160;2022-07-25T04:20:27;100710.00;;;24.25;53.56
4449;BME280;2237;51.870;6.160;2022-07-25T04:22:54;100705.28;;;24.28;53.57
4449;BME280;2237;51.870;6.160;2022-07-25T04:25:21;100706.97;;;24.29;53.69
4449;BME280;2237;51.870;6.160;2022-07-25T04:27:47;100705.75;;;24.33;53.44
4449;BME280;2237;51.870;6.160;2022-07-25T04:30:14;100708.16;;;24.36;53.20
4449;BME280;2237;51.870;6.160;2022-07-25T04:32:50;100697.50;;;24.36;53.10
4449;BME280;2237;51.870;6.160;2022-07-25T04:35:16;100694.97;;;24.35;53.05
4449;BME280;2237;51.870;6.160;2022-07-25T04:37:43;100687.00;;;24.35;53.06
4449;BME280;2237;51.870;6.160;2022-07-25T04:40:10;100680.94;;;24.33;53.19
4449;BME280;2237;51.870;6.160;2022-07-25T04:42:36;100680.22;;;24.31;53.24
4449;BME280;2237;51.870;6.160;2022-07-25T04:45:03;100684.84;;;24.29;53.03
4449;BME280;2237;51.870;6.160;2022-07-25T04:47:30;100681.19;;;24.30;52.96
4449;BME280;2237;51.870;6.160;2022-07-25T04:49:56;100678.41;;;24.31;52.94
4449;BME280;2237;51.870;6.160;2022-07-25T04:52:23;100679.72;;;24.37;52.42
4449;BME280;2237;51.870;6.160;2022-07-25T04:54:49;100676.56;;;24.43;52.10
4449;BME280;2237;51.870;6.160;2022-07-25T04:57:15;100674.09;;;24.51;52.19
4449;BME280;2237;51.870;6.160;2022-07-25T04:59:42;100676.00;;;24.60;51.92
4449;BME280;2237;51.870;6.160;2022-07-25T05:02:09;100676.47;;;24.65;52.15
4449;BME280;2237;51.870;6.160;2022-07-25T05:04:36;100675.00;;;24.72;51.60
4449;BME280;2237;51.870;6.160;2022-07-25T05:07:10;100671.81;;;24.78;51.62
4449;BME280;2237;51.870;6.160;2022-07-25T05:09:36;100668.66;;;24.73;51.53
4449;BME280;2237;51.870;6.160;2022-07-25T05:12:03;100673.75;;;24.76;51.38
4449;BME280;2237;51.870;6.160;2022-07-25T05:14:29;100677.63;;;24.83;51.45
4449;BME280;2237;51.870;6.160;2022-07-25T05:16:56;100680.38;;;24.93;51.33
4449;BME280;2237;51.870;6.160;2022-07-25T05:19:22;100673.97;;;25.05;50.85
4449;BME280;2237;51.870;6.160;2022-07-25T05:21:49;100672.94;;;25.17;50.41
4449;BME280;2237;51.870;6.160;2022-07-25T05:24:16;100668.53;;;25.27;49.81
4449;BME280;2237;51.870;6.160;2022-07-25T05:26:42;100664.59;;;25.31;49.60
4449;BME280;2237;51.870;6.160;2022-07-25T05:29:09;100664.59;;;25.31;49.72
4449;BME280;2237;51.870;6.160;2022-07-25T05:31:36;100668.03;;;25.43;49.31
4449;BME280;2237;51.870;6.160;2022-07-25T05:34:04;100667.59;;;25.58;49.03
4449;BME280;2237;51.870;6.160;2022-07-25T05:36:31;100667.19;;;25.63;49.06
4449;BME280;2237;51.870;6.160;2022-07-25T05:38:58;100676.75;;;25.65;49.13
4449;BME280;2237;51.870;6.160;2022-07-25T05:41:25;100667.59;;;25.58;49.40
4449;BME280;2237;51.870;6.160;2022-07-25T05:43:52;100666.03;;;25.56;50.06
4449;BME280;2237;51.870;6.160;2022-07-25T05:46:19;100673.63;;;25.60;50.14
4449;BME280;2237;51.870;6.160;2022-07-25T05:48:45;100665.25;;;25.65;50.16
4449;BME280;2237;51.870;6.160;2022-07-25T05:51:12;100665.97;;;25.76;49.74
4449;BME280;2237;51.870;6.160;2022-07-25T05:53:39;100674.31;;;25.83;49.35
4449;BME280;2237;51.870;6.160;2022-07-25T05:56:06;100676.25;;;25.81;48.90
4449;BME280;2237;51.870;6.160;2022-07-25T05:58:32;100671.63;;;25.83;49.13
4449;BME280;2237;51.870;6.160;2022-07-25T06:00:59;100669.78;;;25.74;48.85
4449;BME280;2237;51.870;6.160;2022-07-25T06:03:25;100674.25;;;25.73;49.12
4449;BME280;2237;51.870;6.160;2022-07-25T06:05:54;100669.63;;;25.75;49.17
4449;BME280;2237;51.870;6.160;2022-07-25T06:08:20;100660.66;;;25.76;48.35
4449;BME280;2237;51.870;6.160;2022-07-25T06:10:47;100665.56;;;25.81;48.09
4449;BME280;2237;51.870;6.160;2022-07-25T06:13:14;100675.84;;;25.86;48.18
4449;BME280;2237;51.870;6.160;2022-07-25T06:15:40;100665.72;;;25.79;47.76
4449;BME280;2237;51.870;6.160;2022-07-25T06:18:07;100664.75;;;25.90;47.51
4449;BME280;2237;51.870;6.160;2022-07-25T06:20:34;100668.28;;;25.91;47.78
4449;BME280;2237;51.870;6.160;2022-07-25T06:23:00;100655.91;;;25.90;47.67
4449;BME280;2237;51.870;6.160;2022-07-25T06:25:28;100657.34;;;25.94;47.99
4449;BME280;2237;51.870;6.160;2022-07-25T06:27:54;100657.91;;;25.97;47.64
4449;BME280;2237;51.870;6.160;2022-07-25T06:30:21;100664.91;;;25.98;47.70
4449;BME280;2237;51.870;6.160;2022-07-25T06:32:48;100657.91;;;25.97;47.73
4449;BME280;2237;51.870;6.160;2022-07-25T06:35:15;100665.28;;;25.84;48.28
4449;BME280;2237;51.870;6.160;2022-07-25T06:37:42;100672.50;;;25.93;48.14
4449;BME280;2237;51.870;6.160;2022-07-25T06:40:09;100663.78;;;26.01;48.28
4449;BME280;2237;51.870;6.160;2022-07-25T06:42:42;100669.31;;;26.09;48.12
4449;BME280;2237;51.870;6.160;2022-07-25T06:45:10;100669.84;;;26.12;48.21
4449;BME280;2237;51.870;6.160;2022-07-25T06:47:41;100681.31;;;26.14;48.49
4449;BME280;2237;51.870;6.160;2022-07-25T06:50:10;100686.22;;;26.19;48.30
4449;BME280;2237;51.870;6.160;2022-07-25T06:52:37;100682.94;;;26.06;48.72
4449;BME280;2237;51.870;6.160;2022-07-25T06:55:06;100668.69;;;25.96;49.02
4449;BME280;2237;51.870;6.160;2022-07-25T06:57:32;100675.13;;;25.83;49.57
4449;BME280;2237;51.870;6.160;2022-07-25T06:59:59;100669.94;;;25.82;49.45
4449;BME280;2237;51.870;6.160;2022-07-25T07:02:26;100669.84;;;25.63;50.20
4449;BME280;2237;51.870;6.160;2022-07-25T07:04:52;100676.50;;;25.68;50.41
4449;BME280;2237;51.870;6.160;2022-07-25T07:07:19;100672.56;;;25.72;50.51
4449;BME280;2237;51.870;6.160;2022-07-25T07:09:46;100684.25;;;25.81;50.49
4449;BME280;2237;51.870;6.160;2022-07-25T07:12:12;100684.63;;;25.67;51.02
4449;BME280;2237;51.870;6.160;2022-07-25T07:14:38;100692.09;;;25.73;51.36
4449;BME280;2237;51.870;6.160;2022-07-25T07:17:05;100683.13;;;25.83;51.14
4449;BME280;2237;51.870;6.160;2022-07-25T07:19:31;100689.53;;;25.71;51.09
4449;BME280;2237;51.870;6.160;2022-07-25T07:21:58;100686.31;;;25.77;50.78
4449;BME280;2237;51.870;6.160;2022-07-25T07:24:25;100674.38;;;25.72;49.49
4449;BME280;2237;51.870;6.160;2022-07-25T07:26:52;100669.66;;;25.85;49.98
4449;BME280;2237;51.870;6.160;2022-07-25T07:29:19;100673.03;;;25.87;48.93
4449;BME280;2237;51.870;6.160;2022-07-25T07:31:47;100674.72;;;25.88;48.94
4449;BME280;2237;51.870;6.160;2022-07-25T07:34:13;100664.28;;;26.15;48.08
4449;BME280;2237;51.870;6.160;2022-07-25T07:36:42;100656.88;;;26.28;46.64
4449;BME280;2237;51.870;6.160;2022-07-25T07:39:08;100657.56;;;26.30;47.06
4449;BME280;2237;51.870;6.160;2022-07-25T07:41:35;100671.34;;;26.35;47.08
4449;BME280;2237;51.870;6.160;2022-07-25T07:44:01;100666.28;;;26.42;47.21
4449;BME280;2237;51.870;6.160;2022-07-25T07:46:28;100667.84;;;26.45;47.03
4449;BME280;2237;51.870;6.160;2022-07-25T07:48:54;100659.53;;;26.48;46.83
4449;BME280;2237;51.870;6.160;2022-07-25T07:51:21;100682.16;;;26.24;46.48
4449;BME280;2237;51.870;6.160;2022-07-25T07:53:47;100677.63;;;26.15;46.33
4449;BME280;2237;51.870;6.160;2022-07-25T07:56:32;100678.41;;;25.97;46.88
4449;BME280;2237;51.870;6.160;2022-07-25T07:58:59;100679.09;;;25.99;47.10
4449;BME280;2237;51.870;6.160;2022-07-25T08:01:25;100679.56;;;26.13;46.93
4449;BME280;2237;51.870;6.160;2022-07-25T08:03:52;100680.19;;;26.36;46.29
4449;BME280;2237;51.870;6.160;2022-07-25T08:06:18;100684.16;;;26.61;45.64
4449;BME280;2237;51.870;6.160;2022-07-25T08:08:45;100680.50;;;26.62;44.69
4449;BME280;2237;51.870;6.160;2022-07-25T08:11:11;100692.59;;;26.66;44.50
4449;BME280;2237;51.870;6.160;2022-07-25T08:13:38;100692.59;;;26.75;44.56
4449;BME280;2237;51.870;6.160;2022-07-25T08:16:05;100688.41;;;26.92;43.88
4449;BME280;2237;51.870;6.160;2022-07-25T08:18:32;100686.13;;;27.16;43.92
4449;BME280;2237;51.870;6.160;2022-07-25T08:21:00;100676.00;;;27.10;43.78
4449;BME280;2237;51.870;6.160;2022-07-25T08:23:28;100681.38;;;26.91;44.26
4449;BME280;2237;51.870;6.160;2022-07-25T08:25:57;100685.44;;;26.85;43.45
4449;BME280;2237;51.870;6.160;2022-07-25T08:28:24;100683.06;;;26.92;44.19
4449;BME280;2237;51.870;6.160;2022-07-25T08:30:50;100687.25;;;26.56;44.49
4449;BME280;2237;51.870;6.160;2022-07-25T08:33:17;100688.81;;;26.49;45.57
4449;BME280;2237;51.870;6.160;2022-07-25T08:35:49;100683.28;;;26.22;45.84
4449;BME280;2237;51.870;6.160;2022-07-25T08:38:17;100680.94;;;25.98;46.21
4449;BME280;2237;51.870;6.160;2022-07-25T08:40:44;100686.53;;;25.86;46.57
4449;BME280;2237;51.870;6.160;2022-07-25T08:43:14;100687.38;;;25.96;46.13
4449;BME280;2237;51.870;6.160;2022-07-25T08:45:50;100689.66;;;26.10;46.92
4449;BME280;2237;51.870;6.160;2022-07-25T08:48:22;100692.22;;;26.11;46.28
4449;BME280;2237;51.870;6.160;2022-07-25T08:50:50;100696.00;;;26.09;45.47
4449;BME280;2237;51.870;6.160;2022-07-25T08:53:18;100694.53;;;25.95;46.37
4449;BME280;2237;51.870;6.160;2022-07-25T08:56:05;100692.81;;;26.15;46.11
4449;BME280;2237;51.870;6.160;2022-07-25T08:58:40;100696.78;;;26.39;45.80
4449;BME280;2237;51.870;6.160;2022-07-25T09:01:09;100694.81;;;26.42;45.83
4449;BME280;2237;51.870;6.160;2022-07-25T09:03:36;100696.69;;;26.60;45.93
4449;BME280;2237;51.870;6.160;2022-07-25T09:06:14;100686.00;;;26.79;44.64
4449;BME280;2237;51.870;6.160;2022-07-25T09:08:52;100691.47;;;27.16;44.65
4449;BME280;2237;51.870;6.160;2022-07-25T09:11:31;100692.28;;;27.45;43.53
4449;BME280;2237;51.870;6.160;2022-07-25T09:14:08;100700.53;;;27.62;43.21
4449;BME280;2237;51.870;6.160;2022-07-25T09:16:42;100704.28;;;27.22;43.48
4449;BME280;2237;51.870;6.160;2022-07-25T09:19:15;100697.34;;;27.29;43.64
4449;BME280;2237;51.870;6.160;2022-07-25T09:21:44;100695.25;;;27.23;43.25
4449;BME280;2237;51.870;6.160;2022-07-25T09:24:14;100689.19;;;27.31;43.05
4449;BME280;2237;51.870;6.160;2022-07-25T09:26:46;100690.63;;;26.97;43.96
4449;BME280;2237;51.870;6.160;2022-07-25T09:29:33;100700.75;;;27.03;45.27
4449;BME280;2237;51.870;6.160;2022-07-25T09:32:00;100707.13;;;27.02;44.17
4449;BME280;2237;51.870;6.160;2022-07-25T09:34:32;100710.31;;;27.15;42.76
4449;BME280;2237;51.870;6.160;2022-07-25T09:37:01;100715.84;;;27.13;42.82
4449;BME280;2237;51.870;6.160;2022-07-25T09:41:59;100710.44;;;27.23;43.48
4449;BME280;2237;51.870;6.160;2022-07-25T09:44:25;100711.75;;;27.19;43.45
4449;BME280;2237;51.870;6.160;2022-07-25T09:46:56;100716.97;;;27.67;42.94
4449;BME280;2237;51.870;6.160;2022-07-25T09:49:44;100717.31;;;27.91;42.48
4449;BME280;2237;51.870;6.160;2022-07-25T09:52:12;100713.91;;;28.26;43.07
4449;BME280;2237;51.870;6.160;2022-07-25T09:54:39;100721.41;;;28.22;42.83
4449;BME280;2237;51.870;6.160;2022-07-25T09:57:06;100723.34;;;27.93;43.78
4449;BME280;2237;51.870;6.160;2022-07-25T09:59:33;100727.78;;;27.75;44.26
4449;BME280;2237;51.870;6.160;2022-07-25T10:07:46;100744.22;;;27.89;46.16
4449;BME280;2237;51.870;6.160;2022-07-25T10:10:26;100746.91;;;27.33;47.55
4449;BME280;2237;51.870;6.160;2022-07-25T10:13:01;100742.56;;;27.42;47.99
4449;BME280;2237;51.870;6.160;2022-07-25T10:18:13;100753.38;;;27.50;47.18
4449;BME280;2237;51.870;6.160;2022-07-25T10:20:41;100749.28;;;27.46;47.39
4449;BME280;2237;51.870;6.160;2022-07-25T10:23:24;100755.94;;;27.13;46.09
4449;BME280;2237;51.870;6.160;2022-07-25T10:31:42;100752.41;;;26.84;47.72
4449;BME280;2237;51.870;6.160;2022-07-25T10:34:27;100737.38;;;26.92;48.04
4449;BME280;2237;51.870;6.160;2022-07-25T10:36:54;100748.88;;;27.03;49.28
4449;BME280;2237;51.870;6.160;2022-07-25T10:39:22;100751.69;;;27.20;48.18
4449;BME280;2237;51.870;6.160;2022-07-25T10:41:57;100751.13;;;27.92;47.08
4449;BME280;2237;51.870;6.160;2022-07-25T10:44:39;100752.13;;;27.91;44.66
4449;BME280;2237;51.870;6.160;2022-07-25T10:47:11;100751.16;;;28.19;43.75
4449;BME280;2237;51.870;6.160;2022-07-25T10:49:40;100768.34;;;28.26;44.36
4449;BME280;2237;51.870;6.160;2022-07-25T10:52:28;100766.47;;;28.81;43.88
4449;BME280;2237;51.870;6.160;2022-07-25T10:54:59;100764.16;;;28.69;43.51
4449;BME280;2237;51.870;6.160;2022-07-25T10:57:27;100761.25;;;28.80;44.15
4449;BME280;2237;51.870;6.160;2022-07-25T11:00:07;100769.59;;;28.94;40.70
4449;BME280;2237;51.870;6.160;2022-07-25T11:02:34;100770.44;;;29.30;40.99
4449;BME280;2237;51.870;6.160;2022-07-25T11:05:02;100758.47;;;29.42;40.75
4449;BME280;2237;51.870;6.160;2022-07-25T11:07:29;100761.56;;;28.94;41.38
4449;BME280;2237;51.870;6.160;2022-07-25T11:10:03;100759.66;;;28.87;41.54
4449;BME280;2237;51.870;6.160;2022-07-25T11:12:30;100754.53;;;28.76;42.00
4449;BME280;2237;51.870;6.160;2022-07-25T11:15:05;100753.13;;;29.25;40.00
4449;BME280;2237;51.870;6.160;2022-07-25T11:17:33;100760.69;;;29.29;39.82
4449;BME280;2237;51.870;6.160;2022-07-25T11:20:07;100748.00;;;29.31;39.08
4449;BME280;2237;51.870;6.160;2022-07-25T11:22:34;100757.97;;;29.47;38.21
4449;BME280;2237;51.870;6.160;2022-07-25T11:25:08;100764.78;;;29.33;38.89
4449;BME280;2237;51.870;6.160;2022-07-25T11:27:35;100772.94;;;29.14;39.21
4449;BME280;2237;51.870;6.160;2022-07-25T11:30:09;100763.06;;;28.97;39.56
4449;BME280;2237;51.870;6.160;2022-07-25T11:32:38;100776.66;;;28.78;40.68
4449;BME280;2237;51.870;6.160;2022-07-25T11:35:06;100769.00;;;28.55;41.08
4449;BME280;2237;51.870;6.160;2022-07-25T11:37:34;100778.97;;;28.36;41.95
4449;BME280;2237;51.870;6.160;2022-07-25T11:40:02;100763.69;;;27.91;42.67
4449;BME280;2237;51.870;6.160;2022-07-25T11:42:42;100783.47;;;27.62;43.74
4449;BME280;2237;51.870;6.160;2022-07-25T11:45:22;100782.63;;;27.52;43.74
4449;BME280;2237;51.870;6.160;2022-07-25T11:50:29;100788.94;;;27.79;42.39
4449;BME280;2237;51.870;6.160;2022-07-25T11:53:03;100784.72;;;28.23;42.06
4449;BME280;2237;51.870;6.160;2022-07-25T11:55:35;100796.28;;;28.24;41.72
4449;BME280;2237;51.870;6.160;2022-07-25T11:58:05;100788.59;;;28.56;41.48
4449;BME280;2237;51.870;6.160;2022-07-25T12:00:35;100786.13;;;28.72;41.31
4449;BME280;2237;51.870;6.160;2022-07-25T12:03:08;100786.09;;;28.82;41.01
4449;BME280;2237;51.870;6.160;2022-07-25T12:05:41;100790.66;;;28.72;41.77
4449;BME280;2237;51.870;6.160;2022-07-25T12:08:16;100791.28;;;28.56;42.09
4449;BME280;2237;51.870;6.160;2022-07-25T12:10:45;100775.72;;;28.42;42.70
4449;BME280;2237;51.870;6.160;2022-07-25T12:13:23;100805.16;;;27.68;44.33
4449;BME280;2237;51.870;6.160;2022-07-25T12:15:50;100799.75;;;27.87;44.61
4449;BME280;2237;51.870;6.160;2022-07-25T12:18:16;100805.94;;;27.97;43.85
4449;BME280;2237;51.870;6.160;2022-07-25T12:20:43;100802.69;;;28.31;44.12
4449;BME280;2237;51.870;6.160;2022-07-25T12:23:11;100808.72;;;28.42;43.74
4449;BME280;2237;51.870;6.160;2022-07-25T12:25:40;100815.06;;;28.69;43.76
4449;BME280;2237;51.870;6.160;2022-07-25T12:28:07;100816.25;;;28.84;43.12
4449;BME280;2237;51.870;6.160;2022-07-25T12:30:36;100813.44;;;28.58;42.60
4449;BME280;2237;51.870;6.160;2022-07-25T12:33:04;100812.75;;;29.01;42.34
4449;BME280;2237;51.870;6.160;2022-07-25T12:35:31;100826.63;;;28.96;41.62
4449;BME280;2237;51.870;6.160;2022-07-25T12:37:58;100819.00;;;28.92;41.33
4449;BME280;2237;51.870;6.160;2022-07-25T12:40:25;100825.06;;;28.94;40.70
4449;BME280;2237;51.870;6.160;2022-07-25T12:42:52;100824.44;;;28.55;41.22
4449;BME280;2237;51.870;6.160;2022-07-25T12:45:18;100827.06;;;28.00;42.20
4449;BME280;2237;51.870;6.160;2022-07-25T12:47:46;100833.53;;;28.08;42.68
4449;BME280;2237;51.870;6.160;2022-07-25T12:50:14;100832.00;;;28.05;42.66
4449;BME280;2237;51.870;6.160;2022-07-25T12:52:41;100844.13;;;28.09;42.77
4449;BME280;2237;51.870;6.160;2022-07-25T12:55:11;100848.31;;;28.12;42.73
4449;BME280;2237;51.870;6.160;2022-07-25T12:57:39;100823.03;;;28.51;42.22
4449;BME280;2237;51.870;6.160;2022-07-25T13:00:08;100834.13;;;28.66;41.23
4449;BME280;2237;51.870;6.160;2022-07-25T13:02:36;100839.56;;;29.19;40.70
4449;BME280;2237;51.870;6.160;2022-07-25T13:05:04;100830.63;;;29.28;40.26
4449;BME280;2237;51.870;6.160;2022-07-25T13:07:31;100839.88;;;29.15;40.42
4449;BME280;2237;51.870;6.160;2022-07-25T13:09:59;100835.78;;;29.64;39.91
4449;BME280;2237;51.870;6.160;2022-07-25T13:12:26;100836.53;;;29.31;39.27
4449;BME280;2237;51.870;6.160;2022-07-25T13:14:53;100839.84;;;29.25;39.69
4449;BME280;2237;51.870;6.160;2022-07-25T13:17:20;100843.19;;;29.27;38.97
4449;BME280;2237;51.870;6.160;2022-07-25T13:19:53;100839.25;;;29.22;39.58
4449;BME280;2237;51.870;6.160;2022-07-25T13:22:20;100851.56;;;28.97;39.72
4449;BME280;2237;51.870;6.160;2022-07-25T13:24:47;100843.28;;;28.73;39.82
4449;BME280;2237;51.870;6.160;2022-07-25T13:27:19;100854.25;;;28.15;40.93
4449;BME280;2237;51.870;6.160;2022-07-25T13:29:46;100858.25;;;27.25;44.95
4449;BME280;2237;51.870;6.160;2022-07-25T13:32:13;100865.53;;;26.94;46.42
4449;BME280;2237;51.870;6.160;2022-07-25T13:34:40;100866.88;;;26.79;46.93
4449;BME280;2237;51.870;6.160;2022-07-25T13:37:06;100875.50;;;26.22;48.28